createdAt,value
2022-09-22T00:01:31.453Z,17.07
2022-09-22T00:04:03.346Z,17.10
2022-09-22T00:06:38.724Z,17.14
2022-09-22T00:09:09.773Z,17.21
2022-09-22T00:11:42.370Z,17.25
2022-09-22T00:14:13.005Z,17.25
2022-09-22T00:16:44.921Z,17.25
2022-09-22T00:19:15.935Z,17.28
2022-09-22T00:21:45.527Z,17.32
2022-09-22T00:24:13.192Z,17.33
2022-09-22T00:26:40.635Z,17.32
2022-09-22T00:29:09.759Z,17.28
2022-09-22T00:31:38.955Z,17.23
2022-09-22T00:34:07.827Z,17.14
2022-09-22T00:36:35.196Z,17.07
2022-09-22T00:39:04.045Z,16.97
2022-09-22T00:41:36.282Z,16.88
2022-09-22T00:44:38.509Z,16.74
2022-09-22T00:47:31.547Z,16.66
2022-09-22T00:50:10.152Z,16.64
2022-09-22T00:52:43.403Z,16.59
2022-09-22T00:55:18.760Z,16.56
2022-09-22T00:57:47.572Z,16.56
2022-09-22T01:00:15.918Z,16.58
2022-09-22T01:02:48.410Z,16.55
2022-09-22T01:05:16.430Z,16.52
2022-09-22T01:07:44.437Z,16.46
2022-09-22T01:10:13.231Z,16.44
2022-09-22T01:12:59.279Z,16.47
2022-09-22T01:15:38.021Z,16.53
2022-09-22T01:18:20.831Z,16.59
2022-09-22T01:21:20.376Z,16.61
2022-09-22T01:24:28.951Z,16.59
2022-09-22T01:27:49.645Z,16.52
2022-09-22T01:30:24.901Z,16.43
2022-09-22T01:33:22.828Z,16.31
2022-09-22T01:36:06.799Z,16.22
2022-09-22T01:38:42.802Z,16.14
2022-09-22T01:41:19.223Z,16.06
2022-09-22T01:43:54.364Z,15.98
2022-09-22T01:46:31.094Z,15.91
2022-09-22T01:49:07.593Z,15.85
2022-09-22T01:51:43.013Z,15.80
2022-09-22T01:54:18.161Z,15.74
2022-09-22T01:56:54.794Z,15.71
2022-09-22T01:59:28.433Z,15.68
2022-09-22T02:02:03.556Z,15.66
2022-09-22T02:04:38.599Z,15.65
2022-09-22T02:07:11.268Z,15.65
2022-09-22T02:09:42.254Z,15.70
2022-09-22T02:12:09.715Z,15.80
2022-09-22T02:14:37.072Z,15.88
2022-09-22T02:17:05.820Z,15.93
2022-09-22T02:19:37.786Z,15.97
2022-09-22T02:22:07.009Z,16.04
2022-09-22T02:24:38.110Z,16.06
2022-09-22T02:27:10.685Z,16.06
2022-09-22T02:29:42.767Z,16.07
2022-09-22T02:32:16.205Z,16.08
2022-09-22T02:34:45.751Z,16.13
2022-09-22T02:37:26.010Z,16.13
2022-09-22T02:40:07.221Z,16.13
2022-09-22T02:42:42.868Z,16.14
2022-09-22T02:45:17.210Z,16.10
2022-09-22T02:47:52.485Z,16.06
2022-09-22T02:50:25.420Z,16.01
2022-09-22T02:52:58.902Z,15.93
2022-09-22T02:55:26.156Z,15.85
2022-09-22T02:57:54.431Z,15.80
2022-09-22T03:00:22.709Z,15.78
2022-09-22T03:02:51.324Z,15.79
2022-09-22T03:05:18.755Z,15.80
2022-09-22T03:07:45.993Z,15.83
2022-09-22T03:10:13.305Z,15.87
2022-09-22T03:13:09.120Z,15.91
2022-09-22T03:15:31.444Z,15.98
2022-09-22T03:18:00.208Z,16.03
2022-09-22T03:20:27.533Z,16.08
2022-09-22T03:22:54.790Z,16.09
2022-09-22T03:25:22.054Z,16.09
2022-09-22T03:27:49.390Z,16.06
2022-09-22T03:30:16.833Z,15.99
2022-09-22T03:32:44.333Z,15.92
2022-09-22T03:35:13.095Z,15.92
2022-09-22T03:37:40.385Z,15.94
2022-09-22T03:40:08.368Z,15.95
2022-09-22T03:42:35.987Z,15.98
2022-09-22T03:45:04.395Z,16.01
2022-09-22T03:47:32.318Z,16.02
2022-09-22T03:49:59.548Z,16.01
2022-09-22T03:52:28.150Z,16.01
2022-09-22T03:54:55.587Z,16.01
2022-09-22T03:57:22.975Z,16.00
2022-09-22T03:59:50.515Z,16.00
2022-09-22T04:02:18.452Z,16.02
2022-09-22T04:04:45.979Z,15.99
2022-09-22T04:07:13.198Z,15.92
2022-09-22T04:09:42.031Z,15.88
2022-09-22T04:12:09.805Z,15.85
2022-09-22T04:14:37.162Z,15.82
2022-09-22T04:17:05.239Z,15.80
2022-09-22T04:19:35.589Z,15.81
2022-09-22T04:22:03.252Z,15.79
2022-09-22T04:24:30.777Z,15.75
2022-09-22T04:27:19.122Z,15.71
2022-09-22T04:29:46.645Z,15.70
2022-09-22T04:32:14.522Z,15.76
2022-09-22T04:34:42.882Z,15.79
2022-09-22T04:37:10.526Z,15.80
2022-09-22T04:39:38.106Z,15.78
2022-09-22T04:42:09.061Z,15.75
2022-09-22T04:44:36.462Z,15.69
2022-09-22T04:47:04.393Z,15.64
2022-09-22T04:49:31.619Z,15.57
2022-09-22T04:51:59.182Z,15.48
2022-09-22T04:54:26.475Z,15.45
2022-09-22T04:56:55.642Z,15.43
2022-09-22T04:59:24.345Z,15.40
2022-09-22T05:01:51.573Z,15.36
2022-09-22T05:04:18.880Z,15.27
2022-09-22T05:06:46.997Z,15.24
2022-09-22T05:09:14.666Z,15.20
2022-09-22T05:11:41.903Z,15.12
2022-09-22T05:14:09.175Z,15.00
2022-09-22T05:16:37.881Z,14.86
2022-09-22T05:19:05.226Z,14.68
2022-09-22T05:21:32.529Z,14.57
2022-09-22T05:24:00.846Z,14.47
2022-09-22T05:26:28.328Z,14.36
2022-09-22T05:28:56.101Z,14.27
2022-09-22T05:31:23.814Z,14.21
2022-09-22T05:33:52.787Z,14.15
2022-09-22T05:36:20.376Z,14.15
2022-09-22T05:38:47.752Z,14.15
2022-09-22T05:41:15.060Z,14.16
2022-09-22T05:43:42.370Z,14.20
2022-09-22T05:46:09.764Z,14.25
2022-09-22T05:48:37.076Z,14.37
2022-09-22T05:51:05.718Z,14.47
2022-09-22T05:53:33.017Z,14.49
2022-09-22T05:56:00.765Z,14.49
2022-09-22T05:58:28.105Z,14.50
2022-09-22T06:00:58.097Z,14.53
2022-09-22T06:03:25.863Z,14.51
2022-09-22T06:05:56.271Z,14.49
2022-09-22T06:08:24.956Z,14.45
2022-09-22T06:10:52.772Z,14.38
2022-09-22T06:13:20.095Z,14.27
2022-09-22T06:15:50.221Z,14.25
2022-09-22T06:18:23.480Z,14.26
2022-09-22T06:20:52.520Z,14.37
2022-09-22T06:23:19.849Z,14.52
2022-09-22T06:25:48.570Z,14.68
2022-09-22T06:28:16.517Z,14.83
2022-09-22T06:30:43.836Z,15.01
2022-09-22T06:33:11.818Z,15.18
2022-09-22T06:35:42.923Z,15.26
2022-09-22T06:38:15.087Z,15.27
2022-09-22T06:40:43.473Z,15.30
2022-09-22T06:43:20.413Z,15.37
2022-09-22T06:45:47.733Z,15.47
2022-09-22T06:48:15.160Z,15.68
2022-09-22T06:50:48.553Z,16.10
2022-09-22T06:53:16.189Z,16.63
2022-09-22T06:55:43.973Z,17.19
2022-09-22T06:58:13.917Z,17.78
2022-09-22T07:00:43.548Z,18.37
2022-09-22T07:03:20.962Z,19.09
2022-09-22T07:05:56.539Z,19.90
2022-09-22T07:08:25.382Z,20.55
2022-09-22T07:10:55.039Z,20.84
2022-09-22T07:13:24.131Z,20.98
2022-09-22T07:15:51.719Z,20.98
2022-09-22T07:18:18.976Z,21.08
2022-09-22T07:20:46.250Z,21.36
2022-09-22T07:23:18.283Z,21.76
2022-09-22T07:25:56.337Z,22.18
2022-09-22T07:28:28.359Z,22.65
2022-09-22T07:30:59.018Z,22.90
2022-09-22T07:33:26.935Z,22.75
2022-09-22T07:36:02.948Z,22.44
2022-09-22T07:38:33.625Z,22.05
2022-09-22T07:41:01.434Z,21.71
2022-09-22T07:43:30.524Z,21.36
2022-09-22T07:45:58.175Z,21.04
2022-09-22T07:48:36.390Z,20.74
2022-09-22T07:51:05.702Z,20.48
2022-09-22T07:53:33.553Z,20.37
2022-09-22T07:56:06.302Z,20.30
2022-09-22T07:58:35.048Z,20.13
2022-09-22T08:01:07.997Z,19.99
2022-09-22T08:03:43.776Z,19.84
2022-09-22T08:06:12.720Z,19.76
2022-09-22T08:08:42.584Z,19.72
2022-09-22T08:11:13.286Z,19.87
2022-09-22T08:13:44.238Z,20.54
2022-09-22T08:16:12.118Z,21.42
2022-09-22T08:18:42.127Z,22.45
2022-09-22T08:21:09.511Z,23.37
2022-09-22T08:23:39.934Z,24.18
2022-09-22T08:26:11.749Z,24.88
2022-09-22T08:28:39.019Z,25.82
2022-09-22T08:31:13.211Z,26.86
2022-09-22T08:33:40.940Z,27.84
2022-09-22T08:36:09.425Z,28.63
2022-09-22T08:38:37.931Z,29.05
2022-09-22T08:41:21.538Z,29.52
2022-09-22T08:43:55.315Z,30.07
2022-09-22T08:46:31.662Z,30.67
2022-09-22T08:49:27.411Z,31.28
2022-09-22T08:52:05.411Z,31.78
2022-09-22T08:54:33.223Z,32.33
2022-09-22T08:57:32.724Z,32.75
2022-09-22T09:00:06.389Z,33.06
2022-09-22T09:02:51.811Z,33.32
2022-09-22T09:06:07.422Z,33.60
2022-09-22T09:09:23.394Z,34.36
2022-09-22T09:12:11.290Z,35.01
2022-09-22T09:15:09.662Z,35.37
2022-09-22T09:17:45.973Z,35.51
2022-09-22T09:20:18.624Z,35.86
2022-09-22T09:22:55.675Z,36.33
2022-09-22T09:25:36.813Z,36.77
2022-09-22T09:28:13.396Z,36.87
2022-09-22T09:30:47.470Z,37.04
2022-09-22T09:33:30.014Z,37.40
2022-09-22T09:35:58.676Z,37.53
2022-09-22T09:38:35.453Z,37.53
2022-09-22T09:41:14.643Z,37.18
2022-09-22T09:43:45.581Z,36.76
2022-09-22T09:46:29.849Z,36.87
2022-09-22T09:49:14.436Z,36.83
2022-09-22T09:51:46.639Z,36.64
2022-09-22T09:54:18.071Z,36.43
2022-09-22T09:57:10.806Z,36.75
2022-09-22T09:59:59.374Z,37.32
2022-09-22T10:02:31.730Z,37.50
2022-09-22T10:05:04.568Z,37.64
2022-09-22T10:07:44.132Z,37.69
2022-09-22T10:10:33.978Z,37.72
2022-09-22T10:13:26.369Z,37.52
2022-09-22T10:16:30.743Z,36.40
2022-09-22T10:19:22.818Z,36.16
2022-09-22T10:21:51.749Z,35.25
2022-09-22T10:24:31.871Z,33.62
2022-09-22T10:27:02.430Z,32.52
2022-09-22T10:29:32.832Z,31.70
2022-09-22T10:32:05.460Z,31.05
2022-09-22T10:34:36.653Z,30.56
2022-09-22T10:37:10.535Z,30.00
2022-09-22T10:39:46.042Z,29.19
2022-09-22T10:42:33.475Z,28.40
2022-09-22T10:45:12.854Z,27.96
2022-09-22T10:47:56.564Z,27.44
2022-09-22T10:50:59.254Z,26.95
2022-09-22T10:54:08.827Z,26.51
2022-09-22T10:56:42.824Z,26.21
2022-09-22T10:59:44.926Z,25.76
2022-09-22T11:02:59.940Z,25.23
2022-09-22T11:06:06.354Z,24.92
2022-09-22T11:09:16.215Z,24.94
2022-09-22T11:12:14.975Z,24.92
2022-09-22T11:15:13.804Z,24.59
2022-09-22T11:18:24.985Z,24.39
2022-09-22T11:21:06.210Z,24.49
2022-09-22T11:24:08.410Z,24.49
2022-09-22T11:26:48.999Z,24.75
2022-09-22T11:30:02.389Z,25.38
2022-09-22T11:32:57.852Z,25.78
2022-09-22T11:35:56.953Z,25.96
2022-09-22T11:39:07.562Z,25.71
2022-09-22T11:41:43.766Z,25.52
2022-09-22T11:44:43.377Z,25.44
2022-09-22T11:47:37.565Z,25.44
2022-09-22T11:50:39.630Z,25.24
2022-09-22T11:53:28.969Z,25.15
2022-09-22T11:56:29.082Z,25.04
2022-09-22T11:59:05.188Z,25.04
2022-09-22T12:01:39.050Z,25.09
2022-09-22T12:04:21.325Z,25.23
2022-09-22T12:06:56.000Z,25.33
2022-09-22T12:09:36.891Z,25.25
2022-09-22T12:12:18.346Z,25.14
2022-09-22T12:14:56.657Z,25.04
2022-09-22T12:17:36.135Z,24.96
2022-09-22T12:20:22.104Z,25.02
2022-09-22T12:23:18.001Z,25.08
2022-09-22T12:25:56.834Z,25.15
2022-09-22T12:28:28.713Z,25.16
2022-09-22T12:31:05.554Z,25.14
2022-09-22T12:33:37.386Z,25.30
2022-09-22T12:36:06.931Z,25.98
2022-09-22T12:38:35.041Z,26.00
2022-09-22T12:41:04.370Z,25.74
2022-09-22T12:43:38.059Z,25.38
2022-09-22T12:46:24.077Z,25.14
2022-09-22T12:48:52.209Z,25.08
2022-09-22T12:51:33.765Z,24.99
2022-09-22T12:54:47.196Z,24.74
2022-09-22T12:57:28.829Z,24.71
2022-09-22T13:00:23.931Z,24.71
2022-09-22T13:02:52.895Z,24.78
2022-09-22T13:05:35.938Z,24.91
2022-09-22T13:08:04.200Z,25.38
2022-09-22T13:11:00.521Z,25.97
2022-09-22T13:13:44.697Z,26.11
2022-09-22T13:16:34.909Z,25.74
2022-09-22T13:19:04.275Z,25.48
2022-09-22T13:21:36.902Z,25.19
2022-09-22T13:24:18.638Z,25.01
2022-09-22T13:26:46.023Z,24.98
2022-09-22T13:29:16.327Z,25.20
2022-09-22T13:31:47.713Z,25.92
2022-09-22T13:34:27.839Z,26.79
2022-09-22T13:37:00.526Z,27.27
2022-09-22T13:39:33.106Z,27.32
2022-09-22T13:42:08.404Z,27.17
2022-09-22T13:44:42.461Z,26.96
2022-09-22T13:47:19.528Z,26.55
2022-09-22T13:49:51.780Z,26.40
2022-09-22T13:52:24.789Z,26.27
2022-09-22T13:54:57.478Z,26.13
2022-09-22T13:57:30.350Z,26.08
2022-09-22T14:00:05.089Z,26.06
2022-09-22T14:02:34.587Z,26.02
2022-09-22T14:05:07.991Z,26.03
2022-09-22T14:07:49.464Z,26.08
2022-09-22T14:10:27.891Z,26.09
2022-09-22T14:12:55.959Z,25.94
2022-09-22T14:15:49.902Z,25.61
2022-09-22T14:18:28.107Z,25.34
2022-09-22T14:20:59.647Z,25.15
2022-09-22T14:23:53.828Z,24.92
2022-09-22T14:26:33.621Z,24.74
2022-09-22T14:29:15.303Z,24.60
2022-09-22T14:31:54.135Z,24.52
2022-09-22T14:34:34.471Z,24.35
2022-09-22T14:37:20.656Z,24.16
2022-09-22T14:40:03.442Z,24.10
2022-09-22T14:42:34.161Z,24.16
2022-09-22T14:45:21.161Z,24.22
2022-09-22T14:48:15.826Z,24.28
2022-09-22T14:53:49.501Z,24.56
2022-09-22T14:56:30.099Z,24.72
2022-09-22T14:59:25.638Z,24.71
2022-09-22T15:02:13.692Z,24.61
2022-09-22T15:04:48.669Z,24.57
2022-09-22T15:07:26.692Z,24.52
2022-09-22T15:09:59.476Z,24.53
2022-09-22T15:12:40.434Z,24.63
2022-09-22T15:15:21.594Z,24.58
2022-09-22T15:18:09.059Z,24.59
2022-09-22T15:20:42.813Z,24.51
2022-09-22T15:23:23.080Z,24.51
2022-09-22T15:25:52.161Z,24.55
2022-09-22T15:28:23.764Z,24.49
2022-09-22T15:30:52.737Z,24.45
2022-09-22T15:33:21.560Z,24.48
2022-09-22T15:35:55.295Z,24.51
2022-09-22T15:38:27.848Z,24.55
2022-09-22T15:40:55.509Z,24.63
2022-09-22T15:43:24.390Z,24.68
2022-09-22T15:45:58.249Z,24.71
2022-09-22T15:48:31.116Z,24.68
2022-09-22T15:51:04.731Z,24.56
2022-09-22T15:53:34.578Z,24.40
2022-09-22T15:56:07.045Z,24.23
2022-09-22T15:58:39.097Z,24.13
2022-09-22T16:01:07.919Z,23.98
2022-09-22T16:03:41.282Z,23.90
2022-09-22T16:06:14.090Z,23.85
2022-09-22T16:08:48.152Z,23.79
2022-09-22T16:11:18.734Z,23.70
2022-09-22T16:13:46.159Z,23.65
2022-09-22T16:16:13.588Z,23.61
2022-09-22T16:18:41.907Z,23.58
2022-09-22T16:21:29.365Z,23.52
2022-09-22T16:24:11.201Z,23.56
2022-09-22T16:26:40.209Z,23.50
2022-09-22T16:29:08.567Z,23.49
2022-09-22T16:31:37.400Z,23.44
2022-09-22T16:34:06.711Z,23.36
2022-09-22T16:36:36.421Z,23.24
2022-09-22T16:39:05.726Z,23.12
2022-09-22T16:41:35.340Z,23.04
2022-09-22T16:44:04.537Z,23.00
2022-09-22T16:46:35.049Z,22.95
2022-09-22T16:49:05.271Z,22.87
2022-09-22T16:51:35.497Z,22.82
2022-09-22T16:54:07.433Z,22.78
2022-09-22T16:56:37.858Z,22.78
2022-09-22T16:59:06.330Z,22.74
2022-09-22T17:01:37.697Z,22.69
2022-09-22T17:04:07.265Z,22.63
2022-09-22T17:06:38.205Z,22.58
2022-09-22T17:09:09.290Z,22.51
2022-09-22T17:11:40.178Z,22.46
2022-09-22T17:14:12.504Z,22.43
2022-09-22T17:16:44.937Z,22.40
2022-09-22T17:19:18.477Z,22.32
2022-09-22T17:21:47.725Z,22.28
2022-09-22T17:24:16.913Z,22.23
2022-09-22T17:26:47.842Z,22.19
2022-09-22T17:29:17.034Z,22.13
2022-09-22T17:31:48.188Z,22.10
2022-09-22T17:34:15.810Z,22.05
2022-09-22T17:36:43.476Z,22.03
2022-09-22T17:39:11.743Z,21.98
2022-09-22T17:41:47.002Z,21.95
2022-09-22T17:44:18.194Z,21.90
2022-09-22T17:47:04.271Z,21.86
2022-09-22T17:49:50.167Z,21.80
2022-09-22T17:52:29.930Z,21.75
2022-09-22T17:55:07.446Z,21.69
2022-09-22T17:57:38.616Z,21.65
2022-09-22T18:00:09.854Z,21.60
2022-09-22T18:02:37.339Z,21.57
2022-09-22T18:05:06.778Z,21.52
2022-09-22T18:07:40.147Z,21.48
2022-09-22T18:10:10.925Z,21.42
2022-09-22T18:12:41.283Z,21.35
2022-09-22T18:15:13.170Z,21.32
2022-09-22T18:17:42.844Z,21.28
2022-09-22T18:20:12.626Z,21.25
2022-09-22T18:22:41.422Z,21.23
2022-09-22T18:25:11.353Z,21.20
2022-09-22T18:27:40.407Z,21.16
2022-09-22T18:30:12.190Z,21.16
2022-09-22T18:32:42.748Z,21.13
2022-09-22T18:35:12.763Z,21.10
2022-09-22T18:37:40.498Z,21.07
2022-09-22T18:40:10.134Z,21.02
2022-09-22T18:42:38.903Z,21.00
2022-09-22T18:45:07.799Z,20.96
2022-09-22T18:47:39.630Z,20.91
2022-09-22T18:50:08.253Z,20.88
2022-09-22T18:52:36.743Z,20.84
2022-09-22T18:55:05.244Z,20.80
2022-09-22T18:57:32.529Z,20.75
2022-09-22T19:00:01.643Z,20.73
2022-09-22T19:02:30.238Z,20.69
2022-09-22T19:04:57.621Z,20.65
2022-09-22T19:07:43.605Z,20.63
2022-09-22T19:10:14.721Z,20.57
2022-09-22T19:12:42.709Z,20.55
2022-09-22T19:15:18.145Z,20.51
2022-09-22T19:17:48.437Z,20.48
2022-09-22T19:20:20.390Z,20.45
2022-09-22T19:22:49.268Z,20.43
2022-09-22T19:25:17.372Z,20.40
2022-09-22T19:27:44.747Z,20.38
2022-09-22T19:30:14.385Z,20.36
2022-09-22T19:32:41.901Z,20.33
2022-09-22T19:35:09.854Z,20.30
2022-09-22T19:37:38.107Z,20.28
2022-09-22T19:40:08.515Z,20.24
2022-09-22T19:42:40.064Z,20.21
2022-09-22T19:45:08.513Z,20.18
2022-09-22T19:47:37.740Z,20.14
2022-09-22T19:50:07.952Z,20.09
2022-09-22T19:52:35.980Z,20.06
2022-09-22T19:55:03.916Z,20.02
2022-09-22T19:57:32.014Z,19.99
2022-09-22T19:59:59.351Z,19.96
2022-09-22T20:02:26.681Z,19.95
2022-09-22T20:04:55.959Z,19.92
2022-09-22T20:07:27.722Z,19.89
2022-09-22T20:09:57.668Z,19.84
2022-09-22T20:12:24.944Z,19.81
2022-09-22T20:14:53.306Z,19.76
2022-09-22T20:17:20.598Z,19.73
2022-09-22T20:19:47.859Z,19.69
2022-09-22T20:22:25.234Z,19.64
2022-09-22T20:24:57.168Z,19.61
2022-09-22T20:27:27.119Z,19.57
2022-09-22T20:29:57.428Z,19.55
2022-09-22T20:32:27.126Z,19.52
2022-09-22T20:34:55.765Z,19.49
2022-09-22T20:37:25.003Z,19.47
2022-09-22T20:39:52.974Z,19.46
2022-09-22T20:42:20.878Z,19.43
2022-09-22T20:44:49.163Z,19.42
2022-09-22T20:47:18.956Z,19.41
2022-09-22T20:49:51.619Z,19.36
2022-09-22T20:52:21.071Z,19.34
2022-09-22T20:54:50.093Z,19.31
2022-09-22T20:57:17.896Z,19.29
2022-09-22T20:59:45.786Z,19.26
2022-09-22T21:02:15.249Z,19.26
2022-09-22T21:04:42.899Z,19.23
2022-09-22T21:07:11.655Z,19.16
2022-09-22T21:09:58.246Z,19.13
2022-09-22T21:12:31.280Z,19.07
2022-09-22T21:14:59.503Z,19.06
2022-09-22T21:17:32.925Z,19.03
2022-09-22T21:20:00.607Z,19.03
2022-09-22T21:22:28.299Z,19.02
2022-09-22T21:24:56.434Z,19.01
2022-09-22T21:27:25.017Z,19.01
2022-09-22T21:29:53.971Z,18.98
2022-09-22T21:32:21.481Z,18.97
2022-09-22T21:34:49.030Z,18.96
2022-09-22T21:37:16.622Z,18.93
2022-09-22T21:39:44.155Z,18.91
2022-09-22T21:42:11.675Z,18.87
2022-09-22T21:44:39.191Z,18.87
2022-09-22T21:47:08.142Z,18.87
2022-09-22T21:49:35.486Z,18.85
2022-09-22T21:52:03.297Z,18.85
2022-09-22T21:54:31.102Z,18.84
2022-09-22T21:56:58.438Z,18.81
2022-09-22T21:59:25.746Z,18.80
2022-09-22T22:01:53.081Z,18.77
2022-09-22T22:04:21.818Z,18.75
2022-09-22T22:06:49.146Z,18.74
2022-09-22T22:09:19.069Z,18.74
2022-09-22T22:11:49.593Z,18.71
2022-09-22T22:14:22.318Z,18.68
2022-09-22T22:16:52.182Z,18.63
2022-09-22T22:19:23.098Z,18.60
2022-09-22T22:21:51.657Z,18.57
2022-09-22T22:24:30.452Z,18.54
2022-09-22T22:27:01.403Z,18.49
2022-09-22T22:29:34.725Z,18.48
2022-09-22T22:32:05.023Z,18.48
2022-09-22T22:34:33.738Z,18.45
2022-09-22T22:37:01.168Z,18.42
2022-09-22T22:39:29.892Z,18.38
2022-09-22T22:41:57.276Z,18.35
2022-09-22T22:44:24.646Z,18.34
2022-09-22T22:46:51.923Z,18.30
2022-09-22T22:49:19.669Z,18.26
2022-09-22T22:51:49.409Z,18.26
2022-09-22T22:54:16.901Z,18.24
2022-09-22T22:56:46.814Z,18.25
2022-09-22T22:59:18.139Z,18.23
2022-09-22T23:01:45.542Z,18.20
2022-09-22T23:04:13.107Z,18.16
2022-09-22T23:06:44.508Z,18.13
2022-09-22T23:09:16.779Z,18.12
2022-09-22T23:11:45.807Z,18.12
2022-09-22T23:14:15.897Z,18.10
2022-09-22T23:16:46.741Z,18.11
2022-09-22T23:19:17.300Z,18.11
2022-09-22T23:21:45.395Z,18.10
2022-09-22T23:24:16.923Z,18.08
2022-09-22T23:26:45.024Z,18.08
2022-09-22T23:29:12.585Z,18.05
2022-09-22T23:31:39.820Z,18.03
2022-09-22T23:34:07.066Z,17.98
2022-09-22T23:36:34.561Z,17.97
2022-09-22T23:39:04.368Z,17.93
2022-09-22T23:41:35.724Z,17.91
2022-09-22T23:44:03.882Z,17.88
2022-09-22T23:46:31.786Z,17.88
2022-09-22T23:49:00.108Z,17.89
2022-09-22T23:51:28.355Z,17.88
2022-09-22T23:53:56.320Z,17.88
2022-09-22T23:56:24.703Z,17.86
2022-09-22T23:58:53.554Z,17.84
